Amo, Colorado
Current Conditions -  °F | °C
As of 6:14 PM on Monday 20 Oct 2014 (Local Time) from KFLY Reporting Station
Clear Clear  
Wind Chill: 55°   Ceiling: Unl
Heat Index: 55°   Visibility: 10mi
Dew Point: 32°   Wind: 9mph
Humidity: 41%   Direction: 160°SSE
Pressure: 30.22"   Gusts: NA
Location:  39.0051°N, 104.503°W
Report Text: KFLY 210014Z AUTO 16008KT 10SM CLR 13/00 A3022 RMK AO2 T01281001
Loading
Personal Weather Stations






























Interactive Weather Map New forecast layout! Learn more

10-Day Weather Forecast

Advertisements
Track Severe Weather on mobile